createdAt,value
2022-10-13T00:00:50.836Z,25.20
2022-10-13T00:03:18.933Z,25.00
2022-10-13T00:05:48.645Z,29.67
2022-10-13T00:08:19.933Z,31.27
2022-10-13T00:10:49.289Z,31.08
2022-10-13T00:13:20.237Z,29.38
2022-10-13T00:15:48.521Z,32.90
2022-10-13T00:18:16.742Z,27.80
2022-10-13T00:20:46.462Z,26.52
2022-10-13T00:23:14.089Z,29.38
2022-10-13T00:25:44.584Z,33.03
2022-10-13T00:28:14.535Z,32.85
2022-10-13T00:30:41.754Z,33.10
2022-10-13T00:33:10.893Z,26.95
2022-10-13T00:35:43.293Z,25.77
2022-10-13T00:38:11.810Z,27.42
2022-10-13T00:40:49.812Z,22.80
2022-10-13T00:43:19.643Z,21.85
2022-10-13T00:45:49.987Z,20.55
2022-10-13T00:48:20.979Z,24.00
2022-10-13T00:50:49.045Z,31.65
2022-10-13T00:53:18.287Z,24.65
2022-10-13T00:55:47.521Z,22.70
2022-10-13T00:58:16.868Z,26.13
2022-10-13T01:00:47.368Z,26.00
2022-10-13T01:03:19.514Z,35.17
2022-10-13T01:05:48.069Z,29.00
2022-10-13T01:08:16.520Z,37.80
2022-10-13T01:11:23.419Z,29.60
2022-10-13T01:13:56.947Z,31.40
2022-10-13T01:16:29.599Z,28.15
2022-10-13T01:19:32.341Z,29.02
2022-10-13T01:22:03.940Z,24.45
2022-10-13T01:24:41.898Z,22.75
2022-10-13T01:27:44.914Z,31.58
2022-10-13T01:30:23.164Z,37.30
2022-10-13T01:33:13.494Z,37.63
2022-10-13T01:35:40.708Z,42.17
2022-10-13T01:38:11.981Z,36.30
2022-10-13T01:40:53.047Z,40.72
2022-10-13T01:43:27.175Z,37.30
2022-10-13T01:46:02.215Z,37.15
2022-10-13T01:48:30.073Z,41.22
2022-10-13T01:50:59.956Z,42.08
2022-10-13T01:53:29.087Z,44.85
2022-10-13T01:56:00.127Z,34.17
2022-10-13T01:58:32.729Z,31.42
2022-10-13T02:01:14.443Z,44.25
2022-10-13T02:03:49.119Z,33.85
2022-10-13T02:09:06.396Z,37.42
2022-10-13T02:11:33.805Z,52.58
2022-10-13T02:14:09.807Z,32.38
2022-10-13T02:16:41.154Z,65.90
2022-10-13T02:19:11.696Z,39.05
2022-10-13T02:21:39.553Z,35.63
2022-10-13T02:24:07.942Z,32.72
2022-10-13T02:26:36.225Z,36.35
2022-10-13T02:29:16.012Z,35.63
2022-10-13T02:31:44.058Z,33.50
2022-10-13T02:34:11.912Z,38.60
2022-10-13T02:36:39.730Z,29.90
2022-10-13T02:39:08.554Z,29.20
2022-10-13T02:41:35.657Z,29.63
2022-10-13T02:44:02.931Z,30.95
2022-10-13T02:46:34.953Z,29.80
2022-10-13T02:49:02.062Z,25.05
2022-10-13T02:51:29.932Z,36.33
2022-10-13T02:53:57.035Z,51.70
2022-10-13T02:56:24.129Z,29.65
2022-10-13T02:58:51.171Z,43.70
2022-10-13T03:01:18.300Z,36.85
2022-10-13T03:03:45.310Z,34.15
2022-10-13T03:06:12.503Z,41.55
2022-10-13T03:08:39.644Z,59.03
2022-10-13T03:11:06.703Z,49.33
2022-10-13T03:13:33.948Z,51.15
2022-10-13T03:16:07.164Z,39.90
2022-10-13T03:18:35.005Z,34.90
2022-10-13T03:21:05.537Z,37.08
2022-10-13T03:23:34.425Z,30.38
2022-10-13T03:26:02.164Z,29.73
2022-10-13T03:28:29.340Z,43.47
2022-10-13T03:31:12.887Z,40.30
2022-10-13T03:33:40.690Z,35.08
2022-10-13T03:36:08.031Z,39.97
2022-10-13T03:38:36.072Z,31.90
2022-10-13T03:41:13.886Z,43.72
2022-10-13T03:43:42.206Z,42.25
2022-10-13T03:46:11.309Z,43.20
2022-10-13T03:48:39.010Z,41.28
2022-10-13T03:51:13.817Z,39.78
2022-10-13T03:53:40.857Z,36.03
2022-10-13T03:56:08.094Z,41.05
2022-10-13T04:01:13.783Z,30.60
2022-10-13T04:03:42.749Z,36.85
2022-10-13T04:06:10.131Z,35.38
2022-10-13T04:08:37.413Z,37.80
2022-10-13T04:11:08.806Z,35.92
2022-10-13T04:13:38.757Z,43.33
2022-10-13T04:16:15.703Z,37.97
2022-10-13T04:18:44.919Z,35.53
2022-10-13T04:21:14.779Z,45.00
2022-10-13T04:23:42.338Z,49.58
2022-10-13T04:26:19.489Z,46.88
2022-10-13T04:28:48.477Z,52.65
2022-10-13T04:31:16.061Z,44.03
2022-10-13T04:33:44.382Z,45.55
2022-10-13T04:36:13.038Z,40.63
2022-10-13T04:38:41.115Z,46.08
2022-10-13T04:41:09.451Z,36.85
2022-10-13T04:43:36.919Z,35.97
2022-10-13T04:46:07.069Z,31.00
2022-10-13T04:48:34.465Z,30.25
2022-10-13T04:51:03.794Z,48.63
2022-10-13T04:53:31.588Z,43.42
2022-10-13T04:56:03.848Z,37.22
2022-10-13T04:58:31.450Z,36.42
2022-10-13T05:01:01.938Z,35.80
2022-10-13T05:03:29.443Z,49.42
2022-10-13T05:05:56.964Z,64.72
2022-10-13T05:08:25.060Z,43.20
2022-10-13T05:10:58.424Z,63.97
2022-10-13T05:13:27.387Z,32.65
2022-10-13T05:15:58.002Z,51.15
2022-10-13T05:18:25.253Z,52.15
2022-10-13T05:20:52.291Z,42.97
2022-10-13T05:23:19.328Z,54.75
2022-10-13T05:25:46.540Z,32.10
2022-10-13T05:28:14.997Z,39.78
2022-10-13T05:30:42.144Z,51.30
2022-10-13T05:33:09.484Z,63.78
2022-10-13T05:35:36.647Z,48.88
2022-10-13T05:38:03.737Z,36.30
2022-10-13T05:40:30.968Z,32.63
2022-10-13T05:43:00.725Z,27.40
2022-10-13T05:45:32.428Z,37.97
2022-10-13T05:47:59.474Z,32.70
2022-10-13T05:50:26.814Z,30.52
2022-10-13T05:52:54.202Z,40.85
2022-10-13T05:55:21.279Z,28.45
2022-10-13T05:57:51.698Z,27.42
2022-10-13T06:00:20.332Z,29.20
2022-10-13T06:02:56.594Z,36.33
2022-10-13T06:05:26.663Z,24.75
2022-10-13T06:07:56.280Z,28.98
2022-10-13T06:10:24.232Z,22.40
2022-10-13T06:12:51.577Z,29.85
2022-10-13T06:15:23.303Z,29.42
2022-10-13T06:17:52.816Z,31.50
2022-10-13T06:20:20.526Z,21.67
2022-10-13T06:22:50.107Z,23.55
2022-10-13T06:25:17.386Z,37.90
2022-10-13T06:27:44.793Z,30.90
2022-10-13T06:30:12.343Z,22.23
2022-10-13T06:32:39.652Z,24.08
2022-10-13T06:35:07.347Z,21.25
2022-10-13T06:37:35.231Z,20.30
2022-10-13T06:40:02.879Z,28.67
2022-10-13T06:42:31.890Z,21.00
2022-10-13T06:45:14.847Z,23.85
2022-10-13T06:47:42.057Z,30.48
2022-10-13T06:50:09.585Z,22.45
2022-10-13T06:52:37.032Z,21.23
2022-10-13T06:55:05.032Z,22.38
2022-10-13T06:57:32.634Z,23.27
2022-10-13T07:00:02.105Z,33.13
2022-10-13T07:02:29.190Z,23.50
2022-10-13T07:04:56.295Z,21.48
2022-10-13T07:07:23.426Z,22.58
2022-10-13T07:09:50.540Z,23.25
2022-10-13T07:12:18.146Z,19.70
2022-10-13T07:14:45.540Z,20.08
2022-10-13T07:17:12.546Z,21.08
2022-10-13T07:19:39.735Z,21.70
2022-10-13T07:22:07.015Z,24.08
2022-10-13T07:24:34.071Z,22.38
2022-10-13T07:27:06.747Z,20.45
2022-10-13T07:29:35.118Z,22.53
2022-10-13T07:32:02.074Z,20.60
2022-10-13T07:34:29.148Z,18.33
2022-10-13T07:36:56.877Z,19.27
2022-10-13T07:39:23.906Z,19.98
2022-10-13T07:41:52.499Z,18.42
2022-10-13T07:44:19.767Z,18.90
2022-10-13T07:46:46.850Z,24.48
2022-10-13T07:49:16.234Z,19.95
2022-10-13T07:51:44.586Z,20.40
2022-10-13T07:54:11.790Z,18.38
2022-10-13T07:56:39.681Z,27.55
2022-10-13T07:59:07.715Z,19.73
2022-10-13T08:01:34.865Z,18.85
2022-10-13T08:04:02.644Z,17.45
2022-10-13T08:06:29.972Z,18.05
2022-10-13T08:08:58.352Z,20.25
2022-10-13T08:11:25.832Z,21.25
2022-10-13T08:13:53.245Z,20.17
2022-10-13T08:16:21.849Z,20.13
2022-10-13T08:18:49.506Z,23.92
2022-10-13T08:24:10.939Z,22.58
2022-10-13T08:26:38.327Z,19.05
2022-10-13T08:29:22.879Z,23.52
2022-10-13T08:31:53.087Z,19.45
2022-10-13T08:34:22.075Z,18.70
2022-10-13T08:36:52.911Z,18.95
2022-10-13T08:39:21.078Z,21.13
2022-10-13T08:41:48.854Z,21.60
2022-10-13T08:47:31.768Z,27.67
2022-10-13T08:50:04.256Z,21.67
2022-10-13T08:52:47.142Z,20.60
2022-10-13T08:55:23.411Z,22.60
2022-10-13T08:57:51.158Z,25.27
2022-10-13T09:00:20.934Z,23.50
2022-10-13T09:02:50.569Z,27.42
2022-10-13T09:05:32.778Z,19.55
2022-10-13T09:08:11.586Z,23.70
2022-10-13T09:10:48.110Z,20.88
2022-10-13T09:13:19.524Z,22.63
2022-10-13T09:15:50.370Z,24.08
2022-10-13T09:18:17.869Z,22.90
2022-10-13T09:20:44.954Z,24.05
2022-10-13T09:23:27.992Z,22.52
2022-10-13T09:25:56.277Z,28.92
2022-10-13T09:28:28.003Z,27.13
2022-10-13T09:31:15.133Z,21.85
2022-10-13T09:33:42.548Z,22.52
2022-10-13T09:36:12.796Z,23.58
2022-10-13T09:38:42.970Z,22.17
2022-10-13T09:41:10.018Z,23.77
2022-10-13T09:43:42.514Z,23.13
2022-10-13T09:46:38.691Z,20.75
2022-10-13T09:49:24.893Z,19.27
2022-10-13T09:51:52.593Z,21.83
2022-10-13T09:54:33.705Z,29.67
2022-10-13T09:57:41.382Z,20.75
2022-10-13T10:00:27.129Z,25.15
2022-10-13T10:02:57.920Z,22.15
2022-10-13T10:05:34.523Z,26.08
2022-10-13T10:08:12.469Z,20.40
2022-10-13T10:10:41.183Z,20.30
2022-10-13T10:13:12.576Z,20.38
2022-10-13T10:15:48.354Z,20.38
2022-10-13T10:18:22.849Z,21.63
2022-10-13T10:21:17.376Z,20.38
2022-10-13T10:24:04.141Z,19.45
2022-10-13T10:26:35.757Z,23.40
2022-10-13T10:29:15.239Z,21.30
2022-10-13T10:31:58.119Z,20.73
2022-10-13T10:34:31.584Z,24.88
2022-10-13T10:37:06.365Z,22.30
2022-10-13T10:40:01.077Z,30.27
2022-10-13T10:42:57.049Z,25.90
2022-10-13T10:45:28.234Z,23.65
2022-10-13T10:48:00.500Z,24.27
2022-10-13T10:50:30.975Z,24.48
2022-10-13T10:53:27.499Z,24.48
2022-10-13T10:56:02.939Z,23.90
2022-10-13T10:58:54.931Z,24.60
2022-10-13T11:01:32.179Z,29.63
2022-10-13T11:06:44.255Z,25.02
2022-10-13T11:09:11.951Z,28.70
2022-10-13T11:11:41.459Z,28.92
2022-10-13T11:14:12.381Z,24.85
2022-10-13T11:17:11.015Z,25.85
2022-10-13T11:19:40.284Z,28.02
2022-10-13T11:22:07.259Z,28.38
2022-10-13T11:24:38.826Z,25.73
2022-10-13T11:27:10.748Z,28.40
2022-10-13T11:29:53.837Z,23.60
2022-10-13T11:32:30.891Z,25.70
2022-10-13T11:35:06.453Z,28.40
2022-10-13T11:38:00.870Z,23.00
2022-10-13T11:40:54.672Z,26.23
2022-10-13T11:43:35.350Z,27.98
2022-10-13T11:46:15.032Z,26.77
2022-10-13T11:48:50.684Z,28.85
2022-10-13T11:51:26.411Z,28.25
2022-10-13T11:54:33.264Z,27.58
2022-10-13T11:57:00.760Z,27.10
2022-10-13T11:59:31.362Z,27.30
2022-10-13T12:02:18.944Z,29.95
2022-10-13T12:05:02.410Z,28.70
2022-10-13T12:07:35.273Z,23.55
2022-10-13T12:10:06.329Z,26.88
2022-10-13T12:12:34.448Z,29.73
2022-10-13T12:15:05.947Z,29.15
2022-10-13T12:17:39.065Z,29.70
2022-10-13T12:20:28.225Z,30.63
2022-10-13T12:22:56.269Z,28.70
2022-10-13T12:25:26.970Z,28.60
2022-10-13T12:28:00.506Z,27.10
2022-10-13T12:30:29.676Z,27.48
2022-10-13T12:32:59.690Z,27.73
2022-10-13T12:35:30.945Z,36.28
2022-10-13T12:38:01.481Z,30.55
2022-10-13T12:40:29.797Z,36.35
2022-10-13T12:42:57.512Z,33.45
2022-10-13T12:45:28.534Z,31.60
2022-10-13T12:47:55.832Z,32.50
2022-10-13T12:50:35.439Z,33.90
2022-10-13T12:53:12.230Z,32.28
2022-10-13T12:56:00.548Z,31.88
2022-10-13T12:58:30.256Z,34.97
2022-10-13T13:01:18.169Z,40.25
2022-10-13T13:03:45.395Z,31.58
2022-10-13T13:06:13.421Z,31.13
2022-10-13T13:08:42.099Z,32.13
2022-10-13T13:11:38.062Z,31.33
2022-10-13T13:14:35.514Z,34.78
2022-10-13T13:17:38.580Z,34.05
2022-10-13T13:20:21.585Z,35.05
2022-10-13T13:22:50.804Z,48.97
2022-10-13T13:25:17.892Z,32.85
2022-10-13T13:27:45.706Z,39.58
2022-10-13T13:30:19.449Z,44.17
2022-10-13T13:32:46.900Z,32.05
2022-10-13T13:35:14.301Z,40.28
2022-10-13T13:37:47.180Z,36.30
2022-10-13T13:40:18.009Z,40.67
2022-10-13T13:42:45.301Z,34.03
2022-10-13T13:45:13.762Z,39.42
2022-10-13T13:47:41.071Z,34.40
2022-10-13T13:50:26.267Z,36.17
2022-10-13T13:52:56.921Z,30.98
2022-10-13T13:55:24.508Z,65.90
2022-10-13T13:57:51.774Z,34.53
2022-10-13T14:00:19.659Z,45.17
2022-10-13T14:02:50.949Z,32.10
2022-10-13T14:05:18.076Z,29.25
2022-10-13T14:07:45.210Z,36.17
2022-10-13T14:10:12.394Z,33.28
2022-10-13T14:12:40.497Z,31.02
2022-10-13T14:15:08.504Z,35.03
2022-10-13T14:17:35.732Z,31.02
2022-10-13T14:20:02.889Z,34.50
2022-10-13T14:22:30.026Z,29.63
2022-10-13T14:24:57.001Z,28.65
2022-10-13T14:27:24.293Z,33.40
2022-10-13T14:29:52.847Z,32.40
2022-10-13T14:32:20.395Z,33.38
2022-10-13T14:34:47.628Z,28.58
2022-10-13T14:37:14.700Z,28.88
2022-10-13T14:39:41.868Z,38.30
2022-10-13T14:42:09.005Z,29.13
2022-10-13T14:44:36.024Z,29.15
2022-10-13T14:47:03.324Z,29.30
2022-10-13T14:49:30.496Z,31.63
2022-10-13T14:51:57.511Z,29.05
2022-10-13T14:54:26.424Z,32.25
2022-10-13T14:56:53.539Z,33.70
2022-10-13T14:59:20.721Z,31.20
2022-10-13T15:01:49.310Z,29.42
2022-10-13T15:04:16.399Z,31.13
2022-10-13T15:06:43.544Z,36.17
2022-10-13T15:09:12.016Z,30.45
2022-10-13T15:11:39.520Z,30.15
2022-10-13T15:14:07.655Z,33.83
2022-10-13T15:16:37.033Z,31.92
2022-10-13T15:19:05.171Z,31.05
2022-10-13T15:21:32.332Z,33.10
2022-10-13T15:24:01.686Z,34.25
2022-10-13T15:26:29.141Z,33.53
2022-10-13T15:28:56.275Z,31.58
2022-10-13T15:31:24.622Z,32.65
2022-10-13T15:33:54.127Z,37.70
2022-10-13T15:36:23.713Z,30.75
2022-10-13T15:38:51.698Z,32.80
2022-10-13T15:41:23.248Z,31.42
2022-10-13T15:43:52.007Z,31.80
2022-10-13T15:46:24.214Z,35.53
2022-10-13T15:48:53.418Z,37.53
2022-10-13T15:51:22.684Z,31.45
2022-10-13T15:53:50.181Z,30.92
2022-10-13T15:56:17.917Z,33.42
2022-10-13T15:58:45.739Z,31.17
2022-10-13T16:01:14.496Z,33.67
2022-10-13T16:03:43.217Z,36.60
2022-10-13T16:06:12.546Z,33.08
2022-10-13T16:08:41.060Z,29.83
2022-10-13T16:11:11.727Z,34.78
2022-10-13T16:13:39.691Z,29.48
2022-10-13T16:16:07.832Z,35.47
2022-10-13T16:18:37.424Z,34.08
2022-10-13T16:21:21.802Z,39.40
2022-10-13T16:23:49.422Z,33.10
2022-10-13T16:26:18.171Z,35.78
2022-10-13T16:28:46.659Z,31.90
2022-10-13T16:31:15.469Z,35.17
2022-10-13T16:33:43.918Z,34.72
2022-10-13T16:36:15.766Z,32.13
2022-10-13T16:38:44.431Z,34.28
2022-10-13T16:41:14.656Z,31.60
2022-10-13T16:43:42.759Z,34.90
2022-10-13T16:46:13.467Z,32.95
2022-10-13T16:48:41.927Z,31.10
2022-10-13T16:51:13.579Z,35.42
2022-10-13T16:53:41.099Z,37.35
2022-10-13T16:56:09.069Z,36.00
2022-10-13T16:58:36.420Z,38.00
2022-10-13T17:01:06.619Z,40.15
2022-10-13T17:03:33.777Z,37.92
2022-10-13T17:06:00.965Z,42.88
2022-10-13T17:08:28.321Z,84.93
2022-10-13T17:10:58.247Z,107.82
2022-10-13T17:13:26.006Z,129.05
2022-10-13T17:15:54.638Z,116.72
2022-10-13T17:18:22.098Z,104.65
2022-10-13T17:20:56.690Z,85.88
2022-10-13T17:25:52.540Z,53.47
2022-10-13T17:28:20.830Z,54.10
2022-10-13T17:31:06.686Z,49.95
2022-10-13T17:33:35.442Z,53.55
2022-10-13T17:36:07.729Z,50.75
2022-10-13T17:38:35.330Z,49.33
2022-10-13T17:41:05.315Z,52.72
2022-10-13T17:43:34.722Z,54.92
2022-10-13T17:46:36.921Z,73.32
2022-10-13T17:49:14.425Z,59.22
2022-10-13T17:51:45.563Z,54.85
2022-10-13T17:54:16.026Z,48.42
2022-10-13T17:56:51.077Z,49.53
2022-10-13T18:01:46.169Z,52.38
2022-10-13T18:04:17.347Z,46.33
2022-10-13T18:06:45.414Z,48.17
2022-10-13T18:09:17.960Z,48.95
2022-10-13T18:12:11.251Z,49.25
2022-10-13T18:15:11.233Z,46.25
2022-10-13T18:17:43.231Z,51.22
2022-10-13T18:20:11.282Z,51.70
2022-10-13T18:22:38.394Z,55.42
2022-10-13T18:25:06.327Z,48.40
2022-10-13T18:27:33.635Z,51.17
2022-10-13T18:30:00.772Z,60.58
2022-10-13T18:32:29.258Z,47.80
2022-10-13T18:34:57.379Z,51.55
2022-10-13T18:37:24.520Z,49.95
2022-10-13T18:39:52.370Z,53.78
2022-10-13T18:42:20.739Z,54.10
2022-10-13T18:44:48.406Z,51.47
2022-10-13T18:47:15.503Z,48.00
2022-10-13T18:49:42.614Z,52.08
2022-10-13T18:52:09.715Z,58.67
2022-10-13T18:54:39.683Z,56.55
2022-10-13T18:57:06.791Z,52.63
2022-10-13T18:59:42.442Z,48.90
2022-10-13T19:02:14.259Z,52.80
2022-10-13T19:04:41.607Z,57.20
2022-10-13T19:07:08.769Z,56.10
2022-10-13T19:09:35.950Z,49.80
2022-10-13T19:12:02.987Z,56.80
2022-10-13T19:14:30.865Z,57.53
2022-10-13T19:17:01.734Z,53.45
2022-10-13T19:19:34.321Z,51.50
2022-10-13T19:22:02.780Z,52.33
2022-10-13T19:24:31.892Z,55.05
2022-10-13T19:27:05.889Z,58.08
2022-10-13T19:29:36.059Z,55.45
2022-10-13T19:32:05.532Z,50.00
2022-10-13T19:34:33.395Z,50.50
2022-10-13T19:37:03.139Z,56.88
2022-10-13T19:39:30.261Z,54.03
2022-10-13T19:42:00.348Z,50.78
2022-10-13T19:44:27.559Z,55.75
2022-10-13T19:46:55.468Z,61.08
2022-10-13T19:49:26.218Z,56.83
2022-10-13T19:51:54.130Z,60.05
2022-10-13T19:54:22.366Z,56.75
2022-10-13T19:56:50.729Z,58.80
2022-10-13T19:59:18.673Z,58.42
2022-10-13T20:01:46.246Z,59.05
2022-10-13T20:04:14.931Z,55.80
2022-10-13T20:06:44.463Z,56.38
2022-10-13T20:09:12.233Z,52.80
2022-10-13T20:11:39.363Z,47.17
2022-10-13T20:14:06.650Z,50.67
2022-10-13T20:16:33.835Z,49.35
2022-10-13T20:19:01.701Z,57.92
2022-10-13T20:21:29.629Z,47.42
2022-10-13T20:23:57.585Z,56.55
2022-10-13T20:26:25.776Z,56.08
2022-10-13T20:28:54.537Z,49.85
2022-10-13T20:31:22.933Z,56.35
2022-10-13T20:33:55.082Z,55.22
2022-10-13T20:36:24.758Z,54.13
2022-10-13T20:38:52.779Z,50.65
2022-10-13T20:41:24.876Z,54.70
2022-10-13T20:43:53.723Z,54.67
2022-10-13T20:46:21.870Z,65.32
2022-10-13T20:51:37.031Z,61.97
2022-10-13T20:54:04.245Z,55.25
2022-10-13T20:56:31.313Z,55.60
2022-10-13T20:59:03.655Z,61.40
2022-10-13T21:01:30.908Z,55.78
2022-10-13T21:03:58.481Z,53.70
2022-10-13T21:06:27.100Z,53.40
2022-10-13T21:08:54.161Z,52.38
2022-10-13T21:11:23.511Z,55.33
2022-10-13T21:13:52.361Z,51.05
2022-10-13T21:16:22.103Z,47.75
2022-10-13T21:18:50.886Z,54.40
2022-10-13T21:21:21.142Z,56.08
2022-10-13T21:23:53.706Z,45.80
2022-10-13T21:26:22.353Z,43.90
2022-10-13T21:28:50.787Z,48.83
2022-10-13T21:31:19.756Z,47.50
2022-10-13T21:33:47.171Z,49.83
2022-10-13T21:36:16.756Z,52.15
2022-10-13T21:38:45.798Z,50.63
2022-10-13T21:41:14.405Z,51.42
2022-10-13T21:43:41.818Z,47.55
2022-10-13T21:46:15.134Z,46.50
2022-10-13T21:48:43.926Z,42.00
2022-10-13T21:51:21.368Z,62.70
2022-10-13T21:53:50.598Z,52.22
2022-10-13T21:56:18.403Z,50.78
2022-10-13T21:58:46.324Z,54.53
2022-10-13T22:01:13.926Z,49.45
2022-10-13T22:03:41.864Z,54.53
2022-10-13T22:06:17.503Z,52.88
2022-10-13T22:08:47.826Z,42.38
2022-10-13T22:11:20.626Z,42.33
2022-10-13T22:13:47.720Z,45.70
2022-10-13T22:16:17.674Z,39.85
2022-10-13T22:18:45.336Z,42.38
2022-10-13T22:21:16.503Z,45.15
2022-10-13T22:23:44.319Z,48.55
2022-10-13T22:26:12.382Z,49.65
2022-10-13T22:28:40.033Z,43.65
2022-10-13T22:31:10.053Z,43.03
2022-10-13T22:33:39.099Z,44.25
2022-10-13T22:36:08.992Z,39.47
2022-10-13T22:38:36.263Z,37.30
2022-10-13T22:41:05.623Z,47.38
2022-10-13T22:43:33.119Z,35.55
2022-10-13T22:46:12.324Z,40.70
2022-10-13T22:48:41.139Z,43.67
2022-10-13T22:51:15.103Z,43.47
2022-10-13T22:53:42.254Z,47.10
2022-10-13T22:56:12.783Z,44.65
2022-10-13T22:58:40.266Z,45.38
2022-10-13T23:01:11.405Z,47.45
2022-10-13T23:03:39.493Z,49.90
2022-10-13T23:06:08.178Z,60.20
2022-10-13T23:08:35.516Z,46.80
2022-10-13T23:11:02.666Z,50.10
2022-10-13T23:13:29.706Z,48.20
2022-10-13T23:16:08.557Z,44.90
2022-10-13T23:18:38.592Z,47.97
2022-10-13T23:21:08.003Z,42.50
2022-10-13T23:23:35.385Z,41.13
2022-10-13T23:26:04.582Z,43.22
2022-10-13T23:28:32.859Z,50.30
2022-10-13T23:31:06.752Z,45.25
2022-10-13T23:33:34.469Z,39.88
2022-10-13T23:36:02.765Z,37.70
2022-10-13T23:38:31.250Z,39.38
2022-10-13T23:41:09.350Z,38.55
2022-10-13T23:43:36.719Z,40.08
2022-10-13T23:46:03.933Z,42.63
2022-10-13T23:48:31.152Z,44.05
2022-10-13T23:50:58.247Z,47.60
2022-10-13T23:53:25.354Z,41.58
2022-10-13T23:55:52.505Z,44.13
2022-10-13T23:58:25.887Z,47.53
